createdAt,value
2023-05-06T00:01:58.173Z,77.61
2023-05-06T00:04:26.004Z,77.68
2023-05-06T00:06:54.307Z,77.74
2023-05-06T00:09:24.125Z,77.85
2023-05-06T00:11:52.248Z,78.08
2023-05-06T00:14:20.095Z,78.14
2023-05-06T00:16:47.855Z,78.20
2023-05-06T00:19:15.721Z,78.26
2023-05-06T00:21:43.421Z,78.26
2023-05-06T00:24:11.536Z,78.33
2023-05-06T00:26:39.409Z,78.42
2023-05-06T00:29:07.589Z,78.54
2023-05-06T00:31:35.496Z,78.59
2023-05-06T00:34:03.381Z,78.64
2023-05-06T00:36:31.836Z,78.72
2023-05-06T00:38:59.534Z,78.78
2023-05-06T00:41:32.811Z,78.85
2023-05-06T00:44:00.814Z,78.99
2023-05-06T00:46:28.924Z,79.15
2023-05-06T00:48:57.528Z,79.21
2023-05-06T00:51:26.194Z,79.29
2023-05-06T00:53:54.372Z,79.35
2023-05-06T00:56:22.504Z,79.35
2023-05-06T00:58:50.712Z,79.36
2023-05-06T01:01:18.625Z,79.30
2023-05-06T01:03:47.138Z,79.27
2023-05-06T01:06:18.120Z,79.20
2023-05-06T01:09:09.141Z,79.04
2023-05-06T01:11:46.615Z,79.01
2023-05-06T01:14:23.584Z,78.88
2023-05-06T01:16:58.413Z,78.74
2023-05-06T01:19:49.266Z,78.38
2023-05-06T01:22:18.450Z,78.17
2023-05-06T01:24:47.228Z,77.85
2023-05-06T01:27:16.817Z,77.75
2023-05-06T01:29:48.426Z,77.57
2023-05-06T01:32:28.352Z,77.44
2023-05-06T01:35:00.889Z,77.25
2023-05-06T01:37:45.445Z,77.14
2023-05-06T01:40:16.562Z,77.30
2023-05-06T01:42:51.437Z,77.33
2023-05-06T01:45:22.439Z,77.37
2023-05-06T01:47:51.571Z,77.67
2023-05-06T01:50:19.524Z,77.85
2023-05-06T01:53:01.114Z,77.83
2023-05-06T01:55:29.459Z,77.81
2023-05-06T01:57:57.160Z,77.77
2023-05-06T02:00:26.626Z,77.75
2023-05-06T02:02:54.679Z,77.84
2023-05-06T02:05:22.624Z,77.90
2023-05-06T02:07:55.395Z,78.00
2023-05-06T02:10:23.261Z,78.08
2023-05-06T02:12:58.134Z,78.28
2023-05-06T02:15:26.224Z,78.50
2023-05-06T02:17:54.062Z,78.56
2023-05-06T02:20:21.957Z,78.68
2023-05-06T02:22:49.634Z,78.88
2023-05-06T02:25:17.449Z,79.04
2023-05-06T02:27:46.464Z,79.23
2023-05-06T02:30:14.783Z,79.32
2023-05-06T02:32:42.619Z,79.45
2023-05-06T02:35:10.921Z,79.48
2023-05-06T02:37:38.900Z,79.58
2023-05-06T02:40:07.201Z,79.66
2023-05-06T02:42:36.060Z,79.73
2023-05-06T02:45:04.056Z,79.86
2023-05-06T02:47:33.525Z,79.93
2023-05-06T02:50:01.967Z,80.05
2023-05-06T02:52:29.700Z,80.19
2023-05-06T02:54:57.361Z,80.30
2023-05-06T02:57:25.228Z,80.28
2023-05-06T02:59:53.003Z,80.35
2023-05-06T03:02:20.830Z,80.44
2023-05-06T03:04:48.575Z,80.61
2023-05-06T03:07:16.226Z,80.64
2023-05-06T03:09:44.846Z,80.82
2023-05-06T03:12:13.018Z,80.94
2023-05-06T03:14:41.526Z,80.94
2023-05-06T03:17:09.184Z,81.06
2023-05-06T03:19:38.232Z,81.08
2023-05-06T03:22:08.051Z,81.15
2023-05-06T03:24:39.676Z,81.26
2023-05-06T03:27:08.369Z,81.24
2023-05-06T03:29:36.328Z,81.25
2023-05-06T03:32:05.969Z,81.29
2023-05-06T03:34:40.367Z,81.28
2023-05-06T03:37:10.189Z,81.26
2023-05-06T03:39:39.950Z,81.27
2023-05-06T03:42:09.445Z,81.32
2023-05-06T03:44:38.316Z,81.26
2023-05-06T03:47:06.287Z,81.27
2023-05-06T03:49:36.216Z,81.29
2023-05-06T03:52:05.441Z,81.29
2023-05-06T03:54:33.566Z,81.34
2023-05-06T03:57:02.617Z,81.36
2023-05-06T03:59:31.846Z,81.39
2023-05-06T04:02:00.826Z,81.44
2023-05-06T04:04:28.684Z,81.43
2023-05-06T04:06:57.246Z,81.36
2023-05-06T04:09:25.356Z,81.34
2023-05-06T04:11:53.763Z,81.39
2023-05-06T04:14:22.280Z,81.40
2023-05-06T04:16:50.011Z,81.44
2023-05-06T04:19:18.541Z,81.44
2023-05-06T04:21:47.514Z,81.36
2023-05-06T04:24:17.015Z,81.43
2023-05-06T04:26:45.014Z,81.44
2023-05-06T04:29:13.280Z,81.44
2023-05-06T04:31:54.559Z,81.49
2023-05-06T04:34:25.361Z,81.47
2023-05-06T04:36:54.284Z,81.43
2023-05-06T04:39:32.363Z,81.46
2023-05-06T04:42:00.454Z,81.48
2023-05-06T04:44:36.615Z,81.48
2023-05-06T04:47:07.414Z,81.48
2023-05-06T04:49:35.282Z,81.43
2023-05-06T04:52:04.960Z,81.53
2023-05-06T04:54:34.264Z,81.45
2023-05-06T04:57:03.248Z,81.48
2023-05-06T04:59:32.330Z,81.29
2023-05-06T05:02:02.633Z,81.07
2023-05-06T05:04:31.236Z,80.83
2023-05-06T05:06:59.075Z,80.70
2023-05-06T05:09:27.145Z,80.41
2023-05-06T05:11:54.787Z,80.24
2023-05-06T05:14:22.713Z,80.02
2023-05-06T05:16:51.211Z,79.70
2023-05-06T05:19:19.248Z,79.61
2023-05-06T05:21:47.650Z,78.95
2023-05-06T05:24:16.775Z,78.55
2023-05-06T05:26:44.428Z,78.11
2023-05-06T05:29:12.226Z,77.40
2023-05-06T05:31:40.287Z,76.61
2023-05-06T05:34:08.368Z,76.14
2023-05-06T05:36:36.139Z,75.44
2023-05-06T05:39:07.343Z,75.52
2023-05-06T05:41:38.928Z,75.08
2023-05-06T05:44:06.839Z,74.47
2023-05-06T05:46:35.329Z,74.22
2023-05-06T05:49:05.096Z,73.86
2023-05-06T05:51:32.985Z,73.21
2023-05-06T05:54:03.640Z,73.56
2023-05-06T05:56:32.067Z,73.14
2023-05-06T05:59:00.877Z,73.06
2023-05-06T06:01:29.080Z,72.34
2023-05-06T06:03:58.072Z,71.71
2023-05-06T06:06:27.671Z,71.33
2023-05-06T06:08:56.104Z,71.85
2023-05-06T06:11:25.594Z,70.55
2023-05-06T06:13:53.689Z,70.86
2023-05-06T06:16:22.576Z,70.07
2023-05-06T06:18:50.675Z,69.76
2023-05-06T06:21:19.188Z,70.29
2023-05-06T06:23:47.731Z,70.15
2023-05-06T06:26:16.174Z,69.91
2023-05-06T06:28:44.942Z,69.75
2023-05-06T06:31:12.960Z,69.04
2023-05-06T06:33:40.789Z,68.87
2023-05-06T06:36:08.903Z,68.76
2023-05-06T06:38:36.878Z,67.80
2023-05-06T06:41:05.477Z,68.15
2023-05-06T06:43:33.393Z,67.73
2023-05-06T06:46:02.832Z,67.98
2023-05-06T06:48:30.543Z,68.01
2023-05-06T06:50:58.238Z,67.90
2023-05-06T06:53:26.035Z,67.72
2023-05-06T06:55:53.821Z,66.27
2023-05-06T06:58:21.560Z,65.27
2023-05-06T07:00:49.289Z,66.07
2023-05-06T07:03:19.607Z,65.13
2023-05-06T07:05:48.120Z,64.27
2023-05-06T07:08:17.263Z,65.03
2023-05-06T07:10:45.026Z,64.66
2023-05-06T07:13:12.692Z,61.88
2023-05-06T07:15:40.789Z,61.53
2023-05-06T07:18:09.331Z,61.07
2023-05-06T07:20:36.933Z,61.42
2023-05-06T07:23:04.597Z,60.61
2023-05-06T07:25:32.454Z,62.11
2023-05-06T07:28:00.727Z,59.97
2023-05-06T07:30:28.474Z,58.05
2023-05-06T07:32:56.637Z,59.31
2023-05-06T07:35:24.434Z,59.31
2023-05-06T07:37:52.540Z,58.60
2023-05-06T07:40:20.310Z,57.70
2023-05-06T07:42:48.009Z,57.26
2023-05-06T07:45:15.776Z,60.65
2023-05-06T07:47:43.587Z,61.29
2023-05-06T07:50:11.503Z,61.77
2023-05-06T07:52:39.211Z,61.77
2023-05-06T07:55:09.770Z,61.25
2023-05-06T07:57:37.733Z,59.36
2023-05-06T08:00:06.200Z,58.90
2023-05-06T08:02:44.560Z,60.17
2023-05-06T08:05:13.203Z,60.11
2023-05-06T08:07:42.413Z,57.94
2023-05-06T08:10:11.102Z,58.57
2023-05-06T08:12:38.915Z,57.73
2023-05-06T08:15:07.313Z,57.11
2023-05-06T08:17:35.072Z,57.14
2023-05-06T08:20:03.089Z,57.33
2023-05-06T08:22:31.091Z,58.38
2023-05-06T08:24:58.912Z,55.46
2023-05-06T08:27:26.747Z,57.38
2023-05-06T08:29:54.447Z,54.96
2023-05-06T08:32:22.232Z,54.84
2023-05-06T08:34:49.948Z,53.72
2023-05-06T08:37:17.639Z,54.22
2023-05-06T08:39:45.844Z,56.32
2023-05-06T08:42:13.717Z,57.92
2023-05-06T08:44:42.898Z,57.17
2023-05-06T08:47:11.285Z,53.91
2023-05-06T08:49:39.290Z,54.79
2023-05-06T08:52:07.261Z,54.05
2023-05-06T08:54:36.567Z,53.41
2023-05-06T08:57:06.541Z,52.86
2023-05-06T08:59:34.613Z,51.84
2023-05-06T09:02:03.975Z,53.50
2023-05-06T09:04:32.200Z,53.66
2023-05-06T09:07:00.313Z,52.67
2023-05-06T09:09:28.972Z,53.08
2023-05-06T09:11:57.881Z,53.88
2023-05-06T09:14:25.739Z,54.11
2023-05-06T09:16:53.844Z,55.69
2023-05-06T09:19:23.395Z,54.43
2023-05-06T09:21:52.368Z,54.45
2023-05-06T09:24:20.783Z,53.04
2023-05-06T09:26:48.827Z,54.74
2023-05-06T09:29:16.514Z,52.83
2023-05-06T09:31:46.137Z,54.98
2023-05-06T09:34:15.553Z,53.49
2023-05-06T09:36:43.245Z,53.27
2023-05-06T09:39:11.214Z,53.65
2023-05-06T09:41:39.094Z,55.87
2023-05-06T09:44:06.865Z,55.24
2023-05-06T09:46:34.836Z,51.39
2023-05-06T09:49:06.179Z,52.14
2023-05-06T09:51:34.037Z,53.56
2023-05-06T09:54:02.661Z,52.85
2023-05-06T09:56:34.491Z,51.64
2023-05-06T09:59:04.368Z,50.98
2023-05-06T10:01:37.289Z,48.96
2023-05-06T10:04:09.833Z,50.08
2023-05-06T10:06:41.089Z,51.00
2023-05-06T10:09:10.536Z,50.12
2023-05-06T10:11:38.720Z,47.55
2023-05-06T10:14:07.867Z,46.92
2023-05-06T10:16:37.708Z,45.44
2023-05-06T10:19:08.124Z,48.03
2023-05-06T10:21:42.727Z,48.61
2023-05-06T10:24:16.340Z,51.39
2023-05-06T10:26:48.761Z,49.71
2023-05-06T10:29:17.337Z,49.55
2023-05-06T10:31:55.261Z,45.75
2023-05-06T10:34:25.232Z,48.92
2023-05-06T10:36:57.969Z,47.40
2023-05-06T10:39:30.307Z,45.70
2023-05-06T10:41:58.475Z,47.57
2023-05-06T10:44:59.119Z,44.58
2023-05-06T10:47:29.987Z,42.97
2023-05-06T10:50:27.749Z,43.58
2023-05-06T10:52:57.755Z,42.14
2023-05-06T10:55:36.614Z,42.79
2023-05-06T10:58:15.253Z,44.98
2023-05-06T11:00:52.897Z,43.76
2023-05-06T11:03:24.247Z,46.33
2023-05-06T11:05:52.908Z,43.18
2023-05-06T11:08:26.012Z,45.27
2023-05-06T11:10:54.840Z,45.31
2023-05-06T11:13:28.352Z,44.42
2023-05-06T11:15:58.044Z,44.50
2023-05-06T11:18:29.337Z,47.01
2023-05-06T11:21:03.182Z,47.42
2023-05-06T11:23:43.350Z,44.14
2023-05-06T11:26:12.202Z,45.85
2023-05-06T11:28:43.146Z,43.74
2023-05-06T11:31:12.559Z,43.85
2023-05-06T11:33:51.238Z,40.98
2023-05-06T11:36:20.782Z,43.47
2023-05-06T11:38:51.519Z,40.69
2023-05-06T11:41:21.562Z,40.66
2023-05-06T11:43:51.828Z,39.24
2023-05-06T11:46:21.285Z,45.50
2023-05-06T11:48:50.484Z,41.86
2023-05-06T11:51:23.435Z,42.99
2023-05-06T11:53:51.968Z,39.93
2023-05-06T11:56:19.627Z,40.41
2023-05-06T11:58:47.470Z,40.54
2023-05-06T12:01:15.247Z,41.26
2023-05-06T12:03:43.202Z,45.64
2023-05-06T12:06:12.830Z,40.86
2023-05-06T12:08:41.492Z,43.89
2023-05-06T12:11:10.088Z,43.58
2023-05-06T12:13:39.012Z,44.58
2023-05-06T12:16:08.432Z,45.78
2023-05-06T12:18:36.631Z,45.84
2023-05-06T12:21:04.728Z,48.25
2023-05-06T12:23:32.643Z,48.35
2023-05-06T12:26:06.243Z,48.10
2023-05-06T12:28:35.960Z,49.05
2023-05-06T12:31:24.235Z,50.86
2023-05-06T12:33:52.267Z,52.79
2023-05-06T12:36:20.920Z,53.39
2023-05-06T12:38:57.275Z,56.17
2023-05-06T12:41:36.317Z,56.42
2023-05-06T12:44:24.370Z,57.80
2023-05-06T12:46:55.475Z,60.55
2023-05-06T12:49:23.260Z,63.23
2023-05-06T12:52:11.208Z,65.58
2023-05-06T12:54:39.065Z,67.97
2023-05-06T12:57:07.592Z,68.68
2023-05-06T12:59:37.378Z,69.68
2023-05-06T13:02:06.309Z,70.67
2023-05-06T13:04:34.320Z,69.82
2023-05-06T13:07:02.503Z,71.34
2023-05-06T13:09:31.911Z,71.08
2023-05-06T13:11:59.840Z,71.39
2023-05-06T13:14:27.714Z,72.30
2023-05-06T13:16:56.071Z,72.21
2023-05-06T13:19:32.456Z,73.59
2023-05-06T13:22:01.816Z,74.08
2023-05-06T13:24:30.988Z,74.55
2023-05-06T13:27:02.302Z,73.55
2023-05-06T13:29:30.118Z,73.66
2023-05-06T13:31:58.406Z,74.29
2023-05-06T13:34:26.156Z,74.60
2023-05-06T13:36:54.873Z,73.37
2023-05-06T13:39:22.986Z,72.70
2023-05-06T13:41:51.210Z,71.33
2023-05-06T13:44:19.733Z,72.47
2023-05-06T13:46:48.283Z,72.34
2023-05-06T13:49:16.300Z,70.94
2023-05-06T13:51:43.962Z,72.04
2023-05-06T13:54:11.729Z,72.43
2023-05-06T13:56:39.502Z,71.08
2023-05-06T13:59:08.700Z,68.77
2023-05-06T14:01:37.092Z,69.96
2023-05-06T14:04:05.481Z,70.62
2023-05-06T14:06:33.350Z,70.27
2023-05-06T14:09:01.274Z,71.83
2023-05-06T14:11:28.946Z,71.87
2023-05-06T14:13:57.453Z,71.92
2023-05-06T14:16:25.480Z,71.46
2023-05-06T14:18:53.620Z,70.44
2023-05-06T14:21:21.926Z,71.48
2023-05-06T14:23:49.584Z,71.25
2023-05-06T14:26:17.350Z,72.28
2023-05-06T14:28:45.100Z,72.56
2023-05-06T14:31:12.991Z,73.42
2023-05-06T14:33:40.778Z,72.27
2023-05-06T14:36:08.580Z,73.23
2023-05-06T14:38:36.370Z,73.21
2023-05-06T14:41:04.123Z,74.11
2023-05-06T14:43:32.279Z,73.50
2023-05-06T14:46:00.017Z,71.97
2023-05-06T14:48:32.116Z,72.63
2023-05-06T14:51:00.804Z,73.16
2023-05-06T14:53:28.530Z,72.17
2023-05-06T14:55:56.610Z,71.68
2023-05-06T14:58:24.298Z,73.18
2023-05-06T15:00:52.083Z,72.11
2023-05-06T15:03:19.863Z,72.11
2023-05-06T15:05:47.662Z,72.37
2023-05-06T15:08:15.414Z,72.26
2023-05-06T15:10:43.128Z,71.74
2023-05-06T15:13:10.970Z,72.60
2023-05-06T15:15:39.725Z,71.08
2023-05-06T15:18:07.724Z,71.51
2023-05-06T15:20:36.527Z,69.41
2023-05-06T15:23:04.183Z,69.73
2023-05-06T15:25:36.314Z,70.86
2023-05-06T15:28:05.594Z,69.90
2023-05-06T15:30:33.339Z,69.40
2023-05-06T15:33:02.985Z,69.41
2023-05-06T15:35:34.802Z,68.89
2023-05-06T15:38:04.483Z,69.24
2023-05-06T15:40:32.418Z,69.89
2023-05-06T15:43:00.293Z,69.76
2023-05-06T15:45:28.445Z,70.58
2023-05-06T15:47:56.317Z,70.41
2023-05-06T15:50:32.692Z,71.27
2023-05-06T15:53:02.875Z,71.58
2023-05-06T15:55:41.607Z,71.18
2023-05-06T15:58:13.056Z,72.14
2023-05-06T16:00:40.843Z,71.57
2023-05-06T16:03:11.712Z,71.49
2023-05-06T16:05:40.498Z,71.16
2023-05-06T16:08:08.302Z,71.98
2023-05-06T16:10:35.994Z,72.15
2023-05-06T16:13:03.885Z,71.24
2023-05-06T16:15:32.257Z,71.83
2023-05-06T16:17:59.975Z,72.06
2023-05-06T16:20:27.780Z,71.91
2023-05-06T16:22:55.927Z,71.99
2023-05-06T16:25:24.361Z,72.15
2023-05-06T16:27:52.420Z,71.93
2023-05-06T16:30:20.544Z,72.15
2023-05-06T16:32:48.672Z,72.07
2023-05-06T16:35:19.602Z,71.73
2023-05-06T16:37:47.283Z,72.04
2023-05-06T16:40:17.803Z,72.31
2023-05-06T16:42:45.466Z,72.39
2023-05-06T16:45:13.236Z,71.28
2023-05-06T16:47:41.384Z,72.57
2023-05-06T16:50:09.694Z,72.99
2023-05-06T16:52:37.607Z,72.43
2023-05-06T16:55:06.390Z,72.95
2023-05-06T16:57:34.576Z,73.11
2023-05-06T17:00:02.781Z,73.62
2023-05-06T17:02:30.756Z,73.23
2023-05-06T17:04:58.522Z,73.46
2023-05-06T17:07:26.229Z,72.27
2023-05-06T17:09:53.833Z,74.35
2023-05-06T17:12:23.850Z,74.85
2023-05-06T17:14:51.570Z,76.07
2023-05-06T17:17:21.413Z,77.12
2023-05-06T17:19:49.528Z,77.82
2023-05-06T17:22:17.148Z,78.01
2023-05-06T17:24:44.920Z,78.34
2023-05-06T17:27:12.635Z,78.51
2023-05-06T17:29:40.675Z,78.99
2023-05-06T17:32:08.459Z,79.02
2023-05-06T17:34:36.702Z,79.33
2023-05-06T17:37:05.009Z,79.05
2023-05-06T17:39:33.225Z,79.19
2023-05-06T17:42:01.945Z,79.58
2023-05-06T17:44:30.013Z,79.10
2023-05-06T17:46:58.103Z,79.06
2023-05-06T17:49:25.933Z,78.77
2023-05-06T17:51:53.865Z,79.10
2023-05-06T17:54:21.794Z,79.21
2023-05-06T17:56:52.790Z,79.36
2023-05-06T17:59:21.253Z,79.66
2023-05-06T18:01:49.045Z,79.00
2023-05-06T18:04:16.984Z,79.49
2023-05-06T18:06:47.444Z,79.18
2023-05-06T18:09:15.078Z,79.53
2023-05-06T18:11:44.424Z,79.72
2023-05-06T18:14:12.456Z,79.74
2023-05-06T18:16:40.425Z,79.42
2023-05-06T18:19:08.128Z,79.66
2023-05-06T18:21:36.093Z,79.64
2023-05-06T18:24:15.453Z,79.90
2023-05-06T18:26:46.005Z,79.94
2023-05-06T18:29:14.366Z,79.93
2023-05-06T18:31:42.638Z,80.01
2023-05-06T18:34:10.537Z,80.06
2023-05-06T18:36:38.415Z,80.18
2023-05-06T18:39:07.158Z,80.12
2023-05-06T18:41:34.807Z,80.23
2023-05-06T18:44:04.429Z,80.32
2023-05-06T18:46:32.382Z,80.35
2023-05-06T18:49:01.132Z,80.45
2023-05-06T18:51:28.935Z,80.63
2023-05-06T18:53:56.599Z,80.84
2023-05-06T18:56:24.644Z,80.99
2023-05-06T18:58:52.882Z,81.22
2023-05-06T19:01:20.675Z,81.31
2023-05-06T19:03:49.594Z,81.49
2023-05-06T19:06:17.645Z,81.66
2023-05-06T19:08:45.692Z,81.74
2023-05-06T19:11:21.683Z,81.87
2023-05-06T19:13:51.279Z,82.07
2023-05-06T19:16:19.002Z,82.25
2023-05-06T19:18:47.996Z,82.45
2023-05-06T19:21:16.146Z,82.63
2023-05-06T19:23:44.000Z,82.75
2023-05-06T19:26:12.206Z,82.80
2023-05-06T19:28:43.116Z,82.78
2023-05-06T19:31:11.882Z,82.65
2023-05-06T19:33:40.262Z,82.56
2023-05-06T19:36:09.280Z,82.57
2023-05-06T19:38:36.996Z,82.56
2023-05-06T19:41:07.190Z,82.60
2023-05-06T19:43:40.587Z,82.64
2023-05-06T19:46:09.321Z,82.73
2023-05-06T19:48:38.790Z,82.75
2023-05-06T19:51:07.318Z,82.79
2023-05-06T19:53:35.942Z,82.85
2023-05-06T19:56:14.204Z,82.90
2023-05-06T19:58:42.383Z,82.93
2023-05-06T20:01:10.113Z,82.90
2023-05-06T20:03:38.008Z,82.93
2023-05-06T20:06:06.580Z,82.94
2023-05-06T20:08:35.614Z,83.00
2023-05-06T20:11:03.378Z,83.04
2023-05-06T20:13:31.352Z,83.10
2023-05-06T20:15:59.118Z,83.14
2023-05-06T20:18:27.285Z,83.19
2023-05-06T20:20:54.936Z,83.20
2023-05-06T20:23:22.562Z,83.30
2023-05-06T20:25:50.280Z,83.34
2023-05-06T20:28:18.598Z,83.45
2023-05-06T20:30:47.638Z,83.56
2023-05-06T20:33:15.672Z,83.57
2023-05-06T20:35:43.450Z,83.63
2023-05-06T20:38:11.585Z,83.65
2023-05-06T20:40:39.267Z,83.70
2023-05-06T20:43:06.947Z,83.74
2023-05-06T20:45:34.712Z,83.75
2023-05-06T20:48:02.483Z,83.72
2023-05-06T20:50:31.024Z,83.77
2023-05-06T20:53:00.438Z,83.77
2023-05-06T20:55:28.324Z,83.83
2023-05-06T20:57:56.126Z,83.70
2023-05-06T21:00:24.034Z,83.71
2023-05-06T21:02:51.897Z,83.68
2023-05-06T21:05:22.928Z,83.52
2023-05-06T21:07:50.644Z,83.38
2023-05-06T21:10:18.657Z,83.20
2023-05-06T21:12:50.305Z,83.14
2023-05-06T21:15:18.381Z,83.16
2023-05-06T21:17:46.422Z,83.17
2023-05-06T21:20:14.414Z,83.18
2023-05-06T21:22:42.341Z,83.18
2023-05-06T21:25:10.368Z,83.11
2023-05-06T21:27:38.155Z,83.17
2023-05-06T21:30:06.521Z,83.18
2023-05-06T21:32:34.354Z,83.24
2023-05-06T21:35:03.351Z,83.29
2023-05-06T21:37:31.290Z,83.34
2023-05-06T21:40:02.896Z,83.40
2023-05-06T21:42:32.034Z,83.45
2023-05-06T21:45:01.023Z,83.56
2023-05-06T21:47:29.141Z,83.54
2023-05-06T21:49:57.152Z,83.56
2023-05-06T21:52:25.312Z,83.58
2023-05-06T21:54:52.980Z,83.58
2023-05-06T21:57:20.615Z,83.65
2023-05-06T21:59:48.371Z,83.73
2023-05-06T22:02:16.192Z,83.80
2023-05-06T22:04:43.987Z,83.88
2023-05-06T22:07:11.932Z,83.98
2023-05-06T22:09:39.675Z,84.13
2023-05-06T22:12:08.710Z,84.22
2023-05-06T22:14:41.125Z,84.37
2023-05-06T22:17:10.882Z,84.44
2023-05-06T22:19:38.873Z,84.49
2023-05-06T22:22:07.327Z,84.49
2023-05-06T22:24:35.527Z,84.54
2023-05-06T22:27:03.304Z,84.56
2023-05-06T22:29:31.332Z,84.50
2023-05-06T22:31:59.448Z,84.44
2023-05-06T22:34:27.398Z,84.39
2023-05-06T22:36:55.517Z,84.37
2023-05-06T22:39:24.287Z,84.29
2023-05-06T22:41:52.501Z,84.22
2023-05-06T22:44:21.089Z,84.21
2023-05-06T22:46:48.977Z,84.17
2023-05-06T22:49:19.484Z,84.14
2023-05-06T22:51:47.578Z,84.13
2023-05-06T22:54:15.498Z,84.15
2023-05-06T22:56:43.241Z,84.12
2023-05-06T22:59:10.957Z,84.12
2023-05-06T23:01:38.976Z,84.15
2023-05-06T23:04:07.323Z,84.20
2023-05-06T23:06:35.050Z,84.25
2023-05-06T23:09:02.965Z,84.39
2023-05-06T23:11:30.841Z,84.43
2023-05-06T23:13:58.519Z,84.46
2023-05-06T23:16:26.553Z,84.55
2023-05-06T23:18:54.953Z,84.58
2023-05-06T23:21:22.784Z,84.72
2023-05-06T23:23:50.691Z,84.65
2023-05-06T23:26:18.437Z,84.70
2023-05-06T23:28:46.219Z,84.64
2023-05-06T23:31:15.017Z,84.54
2023-05-06T23:33:42.741Z,84.23
2023-05-06T23:36:10.484Z,84.37
2023-05-06T23:38:38.155Z,84.35
2023-05-06T23:41:06.493Z,84.35
2023-05-06T23:43:34.238Z,84.19
2023-05-06T23:46:02.445Z,84.15
2023-05-06T23:48:30.132Z,84.06
2023-05-06T23:50:57.953Z,84.07
2023-05-06T23:53:26.196Z,84.06
2023-05-06T23:55:54.670Z,83.86
2023-05-06T23:58:22.375Z,84.00
